sensor_id;sensor_type;location;lat;lon;timestamp;pressure;altitude;pressure_sealevel;temperature;humidity
7774;BME280;3931;42.260;23.116;2023-03-18T00:00:45;95864.00;;;5.87;100.00
7774;BME280;3931;42.260;23.116;2023-03-18T00:03:11;95870.13;;;6.30;100.00
7774;BME280;3931;42.260;23.116;2023-03-18T00:05:38;95868.72;;;5.91;100.00
7774;BME280;3931;42.260;23.116;2023-03-18T00:08:05;95837.09;;;7.03;100.00
7774;BME280;3931;42.260;23.116;2023-03-18T00:10:32;95855.59;;;6.30;100.00
7774;BME280;3931;42.260;23.116;2023-03-18T00:12:59;95857.00;;;5.65;100.00
7774;BME280;3931;42.260;23.116;2023-03-18T00:15:26;95846.91;;;6.42;100.00
7774;BME280;3931;42.260;23.116;2023-03-18T00:17:53;95876.53;;;7.30;97.34
7774;BME280;3931;42.260;23.116;2023-03-18T00:20:19;95880.06;;;7.34;93.40
7774;BME280;3931;42.260;23.116;2023-03-18T00:22:54;95881.34;;;7.19;90.98
7774;BME280;3931;42.260;23.116;2023-03-18T00:25:22;95860.44;;;6.01;100.00
7774;BME280;3931;42.260;23.116;2023-03-18T00:27:48;95846.00;;;5.65;100.00
7774;BME280;3931;42.260;23.116;2023-03-18T00:30:14;95843.22;;;5.90;100.00
7774;BME280;3931;42.260;23.116;2023-03-18T00:32:41;95840.84;;;5.99;100.00
7774;BME280;3931;42.260;23.116;2023-03-18T00:35:08;95840.75;;;6.17;100.00
7774;BME280;3931;42.260;23.116;2023-03-18T00:37:35;95831.84;;;5.81;100.00
7774;BME280;3931;42.260;23.116;2023-03-18T00:40:03;95840.44;;;6.01;100.00
7774;BME280;3931;42.260;23.116;2023-03-18T00:42:31;95834.56;;;6.02;100.00
7774;BME280;3931;42.260;23.116;2023-03-18T00:45:02;95845.22;;;5.75;100.00
7774;BME280;3931;42.260;23.116;2023-03-18T00:47:28;95840.03;;;6.09;100.00
7774;BME280;3931;42.260;23.116;2023-03-18T00:49:55;95846.91;;;6.42;100.00
7774;BME280;3931;42.260;23.116;2023-03-18T00:52:21;95846.28;;;6.13;100.00
7774;BME280;3931;42.260;23.116;2023-03-18T00:54:47;95821.81;;;5.11;100.00
7774;BME280;3931;42.260;23.116;2023-03-18T00:57:14;95798.28;;;5.21;100.00
7774;BME280;3931;42.260;23.116;2023-03-18T00:59:40;95796.34;;;5.10;100.00
7774;BME280;3931;42.260;23.116;2023-03-18T01:02:07;95775.22;;;4.72;100.00
7774;BME280;3931;42.260;23.116;2023-03-18T01:04:33;95792.31;;;5.64;100.00
7774;BME280;3931;42.260;23.116;2023-03-18T01:07:00;95859.50;;;7.46;100.00
7774;BME280;3931;42.260;23.116;2023-03-18T01:09:27;95873.19;;;7.56;92.43
7774;BME280;3931;42.260;23.116;2023-03-18T01:11:53;95869.81;;;7.79;89.32
7774;BME280;3931;42.260;23.116;2023-03-18T01:14:19;95871.28;;;7.87;87.75
7774;BME280;3931;42.260;23.116;2023-03-18T01:16:45;95870.25;;;7.74;86.88
7774;BME280;3931;42.260;23.116;2023-03-18T01:19:11;95857.94;;;8.19;85.43
7774;BME280;3931;42.260;23.116;2023-03-18T01:21:38;95855.50;;;7.94;84.01
7774;BME280;3931;42.260;23.116;2023-03-18T01:24:05;95864.00;;;7.70;85.76
7774;BME280;3931;42.260;23.116;2023-03-18T01:26:31;95853.50;;;7.58;85.77
7774;BME280;3931;42.260;23.116;2023-03-18T01:28:57;95845.78;;;7.83;83.98
7774;BME280;3931;42.260;23.116;2023-03-18T01:31:24;95847.88;;;8.05;83.62
7774;BME280;3931;42.260;23.116;2023-03-18T01:33:50;95847.25;;;7.91;82.93
7774;BME280;3931;42.260;23.116;2023-03-18T01:36:16;95847.75;;;7.82;83.49
7774;BME280;3931;42.260;23.116;2023-03-18T01:38:42;95836.22;;;7.91;83.59
7774;BME280;3931;42.260;23.116;2023-03-18T01:41:10;95842.06;;;7.59;82.91
7774;BME280;3931;42.260;23.116;2023-03-18T01:43:39;95839.72;;;7.58;84.67
7774;BME280;3931;42.260;23.116;2023-03-18T01:46:28;95827.63;;;5.62;88.14
7774;BME280;3931;42.260;23.116;2023-03-18T01:48:55;95790.88;;;4.72;100.00
7774;BME280;3931;42.260;23.116;2023-03-18T01:51:23;95766.97;;;5.22;100.00
7774;BME280;3931;42.260;23.116;2023-03-18T01:53:52;95782.13;;;5.61;100.00
7774;BME280;3931;42.260;23.116;2023-03-18T01:56:20;95775.06;;;5.64;100.00
7774;BME280;3931;42.260;23.116;2023-03-18T01:58:50;95775.91;;;5.43;100.00
7774;BME280;3931;42.260;23.116;2023-03-18T02:01:20;95777.13;;;5.35;100.00
7774;BME280;3931;42.260;23.116;2023-03-18T02:03:49;95776.69;;;5.44;100.00
7774;BME280;3931;42.260;23.116;2023-03-18T02:06:16;95788.59;;;6.75;100.00
7774;BME280;3931;42.260;23.116;2023-03-18T02:08:42;95798.31;;;4.99;100.00
7774;BME280;3931;42.260;23.116;2023-03-18T02:11:09;95783.84;;;4.39;100.00
7774;BME280;3931;42.260;23.116;2023-03-18T02:13:38;95772.88;;;4.67;100.00
7774;BME280;3931;42.260;23.116;2023-03-18T02:16:08;95762.31;;;4.76;100.00
7774;BME280;3931;42.260;23.116;2023-03-18T02:18:41;95765.47;;;6.11;100.00
7774;BME280;3931;42.260;23.116;2023-03-18T02:21:32;95825.50;;;6.74;99.26
7774;BME280;3931;42.260;23.116;2023-03-18T02:24:08;95814.88;;;6.80;93.87
7774;BME280;3931;42.260;23.116;2023-03-18T02:26:44;95829.22;;;7.05;90.06
7774;BME280;3931;42.260;23.116;2023-03-18T02:29:14;95830.06;;;6.95;87.61
7774;BME280;3931;42.260;23.116;2023-03-18T02:31:43;95826.31;;;6.68;89.51
7774;BME280;3931;42.260;23.116;2023-03-18T02:34:10;95829.59;;;7.03;87.05
7774;BME280;3931;42.260;23.116;2023-03-18T02:36:37;95831.38;;;7.27;85.58
7774;BME280;3931;42.260;23.116;2023-03-18T02:39:03;95831.00;;;7.66;82.55
7774;BME280;3931;42.260;23.116;2023-03-18T02:41:31;95823.25;;;7.91;80.11
7774;BME280;3931;42.260;23.116;2023-03-18T02:43:58;95817.94;;;8.07;77.79
7774;BME280;3931;42.260;23.116;2023-03-18T02:46:31;95809.03;;;7.96;77.40
7774;BME280;3931;42.260;23.116;2023-03-18T02:49:02;95813.66;;;8.03;77.96
7774;BME280;3931;42.260;23.116;2023-03-18T02:51:29;95817.28;;;7.63;79.95
7774;BME280;3931;42.260;23.116;2023-03-18T02:53:59;95809.44;;;7.20;82.54
7774;BME280;3931;42.260;23.116;2023-03-18T02:56:26;95809.66;;;6.92;84.66
7774;BME280;3931;42.260;23.116;2023-03-18T02:58:52;95810.06;;;7.39;83.16
7774;BME280;3931;42.260;23.116;2023-03-18T03:01:18;95814.41;;;6.92;85.74
7774;BME280;3931;42.260;23.116;2023-03-18T03:03:45;95801.03;;;6.90;86.87
7774;BME280;3931;42.260;23.116;2023-03-18T03:06:11;95810.22;;;6.73;87.35
7774;BME280;3931;42.260;23.116;2023-03-18T03:08:37;95807.66;;;6.45;88.18
7774;BME280;3931;42.260;23.116;2023-03-18T03:11:04;95816.13;;;6.68;87.49
7774;BME280;3931;42.260;23.116;2023-03-18T03:13:30;95815.59;;;6.87;84.77
7774;BME280;3931;42.260;23.116;2023-03-18T03:15:57;95819.28;;;7.14;82.28
7774;BME280;3931;42.260;23.116;2023-03-18T03:18:23;95815.31;;;6.71;83.54
7774;BME280;3931;42.260;23.116;2023-03-18T03:20:50;95823.66;;;7.12;82.54
7774;BME280;3931;42.260;23.116;2023-03-18T03:23:16;95828.06;;;6.99;81.84
7774;BME280;3931;42.260;23.116;2023-03-18T03:25:43;95820.66;;;7.36;80.11
7774;BME280;3931;42.260;23.116;2023-03-18T03:28:10;95823.66;;;7.08;80.33
7774;BME280;3931;42.260;23.116;2023-03-18T03:30:37;95820.00;;;6.74;82.28
7774;BME280;3931;42.260;23.116;2023-03-18T03:33:04;95827.63;;;7.04;81.38
7774;BME280;3931;42.260;23.116;2023-03-18T03:35:30;95821.97;;;7.21;79.79
7774;BME280;3931;42.260;23.116;2023-03-18T03:37:57;95833.19;;;7.00;78.76
7774;BME280;3931;42.260;23.116;2023-03-18T03:40:23;95828.34;;;7.15;76.58
7774;BME280;3931;42.260;23.116;2023-03-18T03:42:50;95825.78;;;6.94;78.13
7774;BME280;3931;42.260;23.116;2023-03-18T03:45:17;95831.16;;;7.86;74.40
7774;BME280;3931;42.260;23.116;2023-03-18T03:47:44;95823.84;;;8.06;72.40
7774;BME280;3931;42.260;23.116;2023-03-18T03:50:11;95830.97;;;7.25;72.32
7774;BME280;3931;42.260;23.116;2023-03-18T03:52:38;95833.81;;;7.59;72.23
7774;BME280;3931;42.260;23.116;2023-03-18T03:55:06;95825.34;;;7.40;72.53
7774;BME280;3931;42.260;23.116;2023-03-18T03:57:33;95823.56;;;7.22;74.47
7774;BME280;3931;42.260;23.116;2023-03-18T03:59:59;95814.03;;;8.05;71.33
7774;BME280;3931;42.260;23.116;2023-03-18T04:02:26;95816.16;;;7.90;69.79
7774;BME280;3931;42.260;23.116;2023-03-18T04:04:52;95824.03;;;8.22;69.20
7774;BME280;3931;42.260;23.116;2023-03-18T04:07:18;95823.19;;;8.29;68.51
7774;BME280;3931;42.260;23.116;2023-03-18T04:09:45;95822.78;;;7.96;69.16
7774;BME280;3931;42.260;23.116;2023-03-18T04:12:12;95829.78;;;8.04;68.69
7774;BME280;3931;42.260;23.116;2023-03-18T04:14:39;95826.72;;;7.62;68.22
7774;BME280;3931;42.260;23.116;2023-03-18T04:17:05;95836.25;;;7.09;72.40
7774;BME280;3931;42.260;23.116;2023-03-18T04:19:32;95848.25;;;6.82;74.00
7774;BME280;3931;42.260;23.116;2023-03-18T04:21:58;95840.03;;;6.06;78.04
7774;BME280;3931;42.260;23.116;2023-03-18T04:24:24;95843.97;;;6.01;80.71
7774;BME280;3931;42.260;23.116;2023-03-18T04:26:50;95844.31;;;6.14;81.75
7774;BME280;3931;42.260;23.116;2023-03-18T04:29:17;95843.09;;;6.22;81.00
7774;BME280;3931;42.260;23.116;2023-03-18T04:31:43;95846.19;;;6.27;81.81
7774;BME280;3931;42.260;23.116;2023-03-18T04:34:09;95844.84;;;6.56;80.66
7774;BME280;3931;42.260;23.116;2023-03-18T04:36:35;95844.88;;;6.53;80.29
7774;BME280;3931;42.260;23.116;2023-03-18T04:39:02;95843.31;;;6.52;80.08
7774;BME280;3931;42.260;23.116;2023-03-18T04:41:28;95846.69;;;6.77;79.42
7774;BME280;3931;42.260;23.116;2023-03-18T04:43:54;95844.03;;;5.80;84.12
7774;BME280;3931;42.260;23.116;2023-03-18T04:46:22;95839.69;;;5.93;83.83
7774;BME280;3931;42.260;23.116;2023-03-18T04:48:48;95842.44;;;5.93;82.14
7774;BME280;3931;42.260;23.116;2023-03-18T04:51:14;95849.91;;;5.71;82.57
7774;BME280;3931;42.260;23.116;2023-03-18T04:53:40;95850.28;;;5.77;82.41
7774;BME280;3931;42.260;23.116;2023-03-18T04:56:07;95857.47;;;5.22;83.34
7774;BME280;3931;42.260;23.116;2023-03-18T04:58:33;95845.63;;;5.63;82.77
7774;BME280;3931;42.260;23.116;2023-03-18T05:00:59;95850.28;;;5.77;83.01
7774;BME280;3931;42.260;23.116;2023-03-18T05:03:27;95857.25;;;6.20;80.98
7774;BME280;3931;42.260;23.116;2023-03-18T05:05:53;95861.91;;;6.27;79.89
7774;BME280;3931;42.260;23.116;2023-03-18T05:08:19;95866.56;;;6.37;77.41
7774;BME280;3931;42.260;23.116;2023-03-18T05:10:45;95856.16;;;5.82;79.76
7774;BME280;3931;42.260;23.116;2023-03-18T05:13:11;95864.19;;;6.39;78.55
7774;BME280;3931;42.260;23.116;2023-03-18T05:15:37;95871.78;;;6.10;77.61
7774;BME280;3931;42.260;23.116;2023-03-18T05:18:04;95865.16;;;6.04;78.79
7774;BME280;3931;42.260;23.116;2023-03-18T05:20:30;95864.09;;;5.38;81.76
7774;BME280;3931;42.260;23.116;2023-03-18T05:22:57;95862.78;;;6.03;81.57
7774;BME280;3931;42.260;23.116;2023-03-18T05:25:23;95864.09;;;7.15;75.93
7774;BME280;3931;42.260;23.116;2023-03-18T05:27:49;95872.56;;;6.87;72.59
7774;BME280;3931;42.260;23.116;2023-03-18T05:30:15;95867.75;;;7.49;71.37
7774;BME280;3931;42.260;23.116;2023-03-18T05:32:41;95868.19;;;7.85;68.94
7774;BME280;3931;42.260;23.116;2023-03-18T05:35:08;95865.25;;;8.36;65.37
7774;BME280;3931;42.260;23.116;2023-03-18T05:37:35;95875.44;;;8.05;67.75
7774;BME280;3931;42.260;23.116;2023-03-18T05:40:02;95872.50;;;9.10;64.67
7774;BME280;3931;42.260;23.116;2023-03-18T05:42:28;95877.09;;;9.43;61.90
7774;BME280;3931;42.260;23.116;2023-03-18T05:44:54;95872.84;;;10.24;59.74
7774;BME280;3931;42.260;23.116;2023-03-18T05:47:22;95881.69;;;9.73;59.87
7774;BME280;3931;42.260;23.116;2023-03-18T05:49:48;95878.28;;;9.42;59.81
7774;BME280;3931;42.260;23.116;2023-03-18T05:52:14;95871.41;;;9.97;59.86
7774;BME280;3931;42.260;23.116;2023-03-18T05:54:42;95868.59;;;10.59;57.63
7774;BME280;3931;42.260;23.116;2023-03-18T05:57:09;95878.13;;;10.19;58.40
7774;BME280;3931;42.260;23.116;2023-03-18T05:59:35;95875.34;;;10.94;56.41
7774;BME280;3931;42.260;23.116;2023-03-18T06:02:01;95876.31;;;11.04;55.02
7774;BME280;3931;42.260;23.116;2023-03-18T06:04:27;95869.34;;;11.15;54.76
7774;BME280;3931;42.260;23.116;2023-03-18T06:06:53;95864.41;;;11.23;54.03
7774;BME280;3931;42.260;23.116;2023-03-18T06:09:20;95871.66;;;11.17;53.68
7774;BME280;3931;42.260;23.116;2023-03-18T06:11:47;95861.91;;;11.28;54.37
7774;BME280;3931;42.260;23.116;2023-03-18T06:14:13;95874.78;;;11.83;52.44
7774;BME280;3931;42.260;23.116;2023-03-18T06:16:40;95876.66;;;11.74;52.03
7774;BME280;3931;42.260;23.116;2023-03-18T06:19:07;95872.00;;;11.19;53.74
7774;BME280;3931;42.260;23.116;2023-03-18T06:21:35;95879.50;;;11.70;53.15
7774;BME280;3931;42.260;23.116;2023-03-18T06:24:01;95880.41;;;11.15;52.88
7774;BME280;3931;42.260;23.116;2023-03-18T06:26:27;95868.19;;;12.09;52.59
7774;BME280;3931;42.260;23.116;2023-03-18T06:28:54;95865.94;;;12.04;52.50
7774;BME280;3931;42.260;23.116;2023-03-18T06:31:21;95860.69;;;11.78;51.70
7774;BME280;3931;42.260;23.116;2023-03-18T06:33:47;95861.72;;;11.84;52.70
7774;BME280;3931;42.260;23.116;2023-03-18T06:36:13;95863.75;;;11.67;53.96
7774;BME280;3931;42.260;23.116;2023-03-18T06:38:41;95871.13;;;13.26;50.65
7774;BME280;3931;42.260;23.116;2023-03-18T06:41:07;95868.59;;;12.65;50.99
7774;BME280;3931;42.260;23.116;2023-03-18T06:43:33;95869.19;;;11.70;53.42
7774;BME280;3931;42.260;23.116;2023-03-18T06:46:00;95860.94;;;12.69;51.50
7774;BME280;3931;42.260;23.116;2023-03-18T06:48:27;95863.31;;;12.55;52.02
7774;BME280;3931;42.260;23.116;2023-03-18T06:50:53;95868.38;;;12.31;52.31
7774;BME280;3931;42.260;23.116;2023-03-18T06:53:19;95868.75;;;12.99;50.78
7774;BME280;3931;42.260;23.116;2023-03-18T06:55:45;95860.81;;;14.20;48.81
7774;BME280;3931;42.260;23.116;2023-03-18T06:58:12;95868.31;;;13.76;48.89
7774;BME280;3931;42.260;23.116;2023-03-18T07:00:38;95860.09;;;14.29;48.07
7774;BME280;3931;42.260;23.116;2023-03-18T07:03:06;95861.44;;;13.31;49.09
7774;BME280;3931;42.260;23.116;2023-03-18T07:05:32;95858.00;;;13.39;49.46
7774;BME280;3931;42.260;23.116;2023-03-18T07:07:58;95854.22;;;13.46;49.34
7774;BME280;3931;42.260;23.116;2023-03-18T07:10:27;95857.88;;;13.68;49.14
7774;BME280;3931;42.260;23.116;2023-03-18T07:12:54;95863.81;;;13.92;48.13
7774;BME280;3931;42.260;23.116;2023-03-18T07:15:22;95859.34;;;13.09;49.95
7774;BME280;3931;42.260;23.116;2023-03-18T07:17:49;95847.34;;;13.84;49.42
7774;BME280;3931;42.260;23.116;2023-03-18T07:20:16;95849.91;;;13.07;49.75
7774;BME280;3931;42.260;23.116;2023-03-18T07:22:43;95849.59;;;14.11;49.29
7774;BME280;3931;42.260;23.116;2023-03-18T07:25:10;95848.88;;;13.98;49.48
7774;BME280;3931;42.260;23.116;2023-03-18T07:27:36;95841.19;;;14.02;48.49
7774;BME280;3931;42.260;23.116;2023-03-18T07:30:03;95840.97;;;14.31;47.92
7774;BME280;3931;42.260;23.116;2023-03-18T07:32:30;95844.97;;;14.73;46.94
7774;BME280;3931;42.260;23.116;2023-03-18T07:34:56;95844.31;;;15.21;45.78
7774;BME280;3931;42.260;23.116;2023-03-18T07:37:22;95837.81;;;14.63;46.61
7774;BME280;3931;42.260;23.116;2023-03-18T07:39:48;95837.09;;;13.94;47.88
7774;BME280;3931;42.260;23.116;2023-03-18T07:42:15;95842.13;;;14.64;46.87
7774;BME280;3931;42.260;23.116;2023-03-18T07:44:41;95835.25;;;14.78;46.60
7774;BME280;3931;42.260;23.116;2023-03-18T07:47:07;95826.66;;;14.85;45.83
7774;BME280;3931;42.260;23.116;2023-03-18T07:49:33;95828.28;;;15.92;44.56
7774;BME280;3931;42.260;23.116;2023-03-18T07:51:59;95825.31;;;15.78;45.44
7774;BME280;3931;42.260;23.116;2023-03-18T07:54:27;95828.44;;;16.61;43.85
7774;BME280;3931;42.260;23.116;2023-03-18T07:56:53;95832.56;;;15.66;44.88
7774;BME280;3931;42.260;23.116;2023-03-18T07:59:19;95825.13;;;15.63;44.82
7774;BME280;3931;42.260;23.116;2023-03-18T08:01:45;95828.09;;;15.87;43.93
7774;BME280;3931;42.260;23.116;2023-03-18T08:04:12;95825.31;;;15.87;44.49
7774;BME280;3931;42.260;23.116;2023-03-18T08:06:38;95825.63;;;15.40;43.36
7774;BME280;3931;42.260;23.116;2023-03-18T08:09:04;95831.88;;;16.11;42.36
7774;BME280;3931;42.260;23.116;2023-03-18T08:11:31;95821.13;;;15.82;41.70
7774;BME280;3931;42.260;23.116;2023-03-18T08:13:57;95827.84;;;16.57;41.45
7774;BME280;3931;42.260;23.116;2023-03-18T08:16:23;95825.16;;;16.72;40.87
7774;BME280;3931;42.260;23.116;2023-03-18T08:18:50;95823.50;;;16.29;41.47
7774;BME280;3931;42.260;23.116;2023-03-18T08:21:16;95825.34;;;16.41;41.79
7774;BME280;3931;42.260;23.116;2023-03-18T08:23:42;95823.06;;;17.09;40.60
7774;BME280;3931;42.260;23.116;2023-03-18T08:26:08;95824.25;;;17.91;39.39
7774;BME280;3931;42.260;23.116;2023-03-18T08:28:35;95816.06;;;17.55;40.14
7774;BME280;3931;42.260;23.116;2023-03-18T08:31:01;95820.41;;;17.14;40.47
7774;BME280;3931;42.260;23.116;2023-03-18T08:33:28;95820.31;;;17.74;39.49
7774;BME280;3931;42.260;23.116;2023-03-18T08:35:54;95816.34;;;16.46;41.55
7774;BME280;3931;42.260;23.116;2023-03-18T08:38:22;95816.06;;;17.13;39.86
7774;BME280;3931;42.260;23.116;2023-03-18T08:40:49;95821.88;;;15.65;40.09
7774;BME280;3931;42.260;23.116;2023-03-18T08:43:15;95814.13;;;15.29;41.75
7774;BME280;3931;42.260;23.116;2023-03-18T08:45:42;95807.91;;;16.92;40.23
7774;BME280;3931;42.260;23.116;2023-03-18T08:48:08;95801.59;;;16.73;40.63
7774;BME280;3931;42.260;23.116;2023-03-18T08:50:35;95801.38;;;17.93;38.67
7774;BME280;3931;42.260;23.116;2023-03-18T08:53:02;95808.03;;;17.39;39.56
7774;BME280;3931;42.260;23.116;2023-03-18T08:55:30;95810.81;;;14.73;42.18
7774;BME280;3931;42.260;23.116;2023-03-18T08:57:56;95801.41;;;17.27;40.58
7774;BME280;3931;42.260;23.116;2023-03-18T09:00:23;95802.97;;;17.19;39.80
7774;BME280;3931;42.260;23.116;2023-03-18T09:02:50;95812.31;;;16.56;39.69
7774;BME280;3931;42.260;23.116;2023-03-18T09:05:17;95808.78;;;17.72;38.88
7774;BME280;3931;42.260;23.116;2023-03-18T09:07:43;95810.56;;;17.28;39.72
7774;BME280;3931;42.260;23.116;2023-03-18T09:10:11;95800.25;;;17.43;38.75
7774;BME280;3931;42.260;23.116;2023-03-18T09:12:39;95798.97;;;17.53;38.10
7774;BME280;3931;42.260;23.116;2023-03-18T09:15:06;95788.31;;;18.13;37.60
7774;BME280;3931;42.260;23.116;2023-03-18T09:17:34;95786.78;;;18.65;36.91
7774;BME280;3931;42.260;23.116;2023-03-18T09:20:02;95786.59;;;17.69;37.41
7774;BME280;3931;42.260;23.116;2023-03-18T09:22:28;95786.47;;;16.89;37.12
7774;BME280;3931;42.260;23.116;2023-03-18T09:24:55;95774.31;;;18.66;36.30
7774;BME280;3931;42.260;23.116;2023-03-18T09:27:21;95776.47;;;17.95;35.44
7774;BME280;3931;42.260;23.116;2023-03-18T09:29:47;95769.69;;;18.25;36.40
7774;BME280;3931;42.260;23.116;2023-03-18T09:32:13;95767.41;;;18.38;35.99
7774;BME280;3931;42.260;23.116;2023-03-18T09:34:40;95757.16;;;17.97;36.00
7774;BME280;3931;42.260;23.116;2023-03-18T09:37:07;95773.88;;;16.51;38.09
7774;BME280;3931;42.260;23.116;2023-03-18T09:39:34;95774.44;;;17.15;38.65
7774;BME280;3931;42.260;23.116;2023-03-18T09:42:12;95773.53;;;15.59;40.26
7774;BME280;3931;42.260;23.116;2023-03-18T09:44:42;95768.66;;;16.77;39.76
7774;BME280;3931;42.260;23.116;2023-03-18T09:47:22;95776.19;;;17.69;38.91
7774;BME280;3931;42.260;23.116;2023-03-18T09:50:01;95776.28;;;17.18;38.53
7774;BME280;3931;42.260;23.116;2023-03-18T09:52:32;95777.75;;;16.09;39.41
7774;BME280;3931;42.260;23.116;2023-03-18T09:55:03;95783.34;;;16.18;40.35
7774;BME280;3931;42.260;23.116;2023-03-18T09:57:32;95780.06;;;16.19;40.07
7774;BME280;3931;42.260;23.116;2023-03-18T10:00:03;95776.97;;;15.90;40.08
7774;BME280;3931;42.260;23.116;2023-03-18T10:02:33;95762.03;;;17.07;38.77
7774;BME280;3931;42.260;23.116;2023-03-18T10:05:04;95769.03;;;17.68;37.38
7774;BME280;3931;42.260;23.116;2023-03-18T10:07:38;95768.19;;;16.69;38.66
7774;BME280;3931;42.260;23.116;2023-03-18T10:10:07;95772.56;;;17.45;38.09
7774;BME280;3931;42.260;23.116;2023-03-18T10:12:36;95761.81;;;18.00;37.03
7774;BME280;3931;42.260;23.116;2023-03-18T10:15:11;95768.50;;;18.17;34.67
7774;BME280;3931;42.260;23.116;2023-03-18T10:17:43;95764.28;;;16.85;34.46
7774;BME280;3931;42.260;23.116;2023-03-18T10:20:17;95761.28;;;17.63;34.16
7774;BME280;3931;42.260;23.116;2023-03-18T10:22:57;95755.94;;;18.51;32.63
7774;BME280;3931;42.260;23.116;2023-03-18T10:25:34;95747.63;;;18.03;32.73
7774;BME280;3931;42.260;23.116;2023-03-18T10:28:22;95748.34;;;18.28;32.35
7774;BME280;3931;42.260;23.116;2023-03-18T10:30:59;95746.25;;;17.61;32.63
7774;BME280;3931;42.260;23.116;2023-03-18T10:33:35;95754.97;;;17.77;32.50
7774;BME280;3931;42.260;23.116;2023-03-18T10:36:10;95745.88;;;18.06;32.42
7774;BME280;3931;42.260;23.116;2023-03-18T10:38:40;95743.81;;;17.44;32.46
7774;BME280;3931;42.260;23.116;2023-03-18T10:41:14;95744.66;;;17.36;32.86
7774;BME280;3931;42.260;23.116;2023-03-18T10:43:42;95748.13;;;16.89;35.00
7774;BME280;3931;42.260;23.116;2023-03-18T10:46:14;95744.09;;;15.85;36.34
7774;BME280;3931;42.260;23.116;2023-03-18T10:48:42;95739.66;;;16.65;34.51
7774;BME280;3931;42.260;23.116;2023-03-18T10:51:15;95750.75;;;15.78;34.34
7774;BME280;3931;42.260;23.116;2023-03-18T10:53:48;95736.50;;;16.13;33.28
7774;BME280;3931;42.260;23.116;2023-03-18T10:56:17;95740.22;;;16.10;32.91
7774;BME280;3931;42.260;23.116;2023-03-18T10:58:43;95741.75;;;15.56;32.55
7774;BME280;3931;42.260;23.116;2023-03-18T11:01:12;95746.75;;;15.79;32.90
7774;BME280;3931;42.260;23.116;2023-03-18T11:03:41;95725.50;;;16.09;32.43
7774;BME280;3931;42.260;23.116;2023-03-18T11:06:15;95718.97;;;15.94;32.74
7774;BME280;3931;42.260;23.116;2023-03-18T11:08:46;95726.09;;;16.22;32.91
7774;BME280;3931;42.260;23.116;2023-03-18T11:11:15;95711.69;;;16.15;32.14
7774;BME280;3931;42.260;23.116;2023-03-18T11:13:45;95715.06;;;16.88;31.86
7774;BME280;3931;42.260;23.116;2023-03-18T11:16:20;95709.88;;;17.28;31.45
7774;BME280;3931;42.260;23.116;2023-03-18T11:18:48;95720.38;;;17.66;30.83
7774;BME280;3931;42.260;23.116;2023-03-18T11:21:14;95724.19;;;16.97;31.47
7774;BME280;3931;42.260;23.116;2023-03-18T11:23:50;95723.00;;;16.29;32.61
7774;BME280;3931;42.260;23.116;2023-03-18T11:26:42;95727.19;;;15.52;33.07
7774;BME280;3931;42.260;23.116;2023-03-18T11:29:11;95722.25;;;15.92;32.94
7774;BME280;3931;42.260;23.116;2023-03-18T11:31:47;95723.34;;;15.77;33.02
7774;BME280;3931;42.260;23.116;2023-03-18T11:34:15;95722.22;;;14.98;33.40
7774;BME280;3931;42.260;23.116;2023-03-18T11:36:51;95724.31;;;15.25;32.41
7774;BME280;3931;42.260;23.116;2023-03-18T11:39:18;95716.66;;;15.74;32.29
7774;BME280;3931;42.260;23.116;2023-03-18T11:41:44;95710.38;;;16.34;31.58
7774;BME280;3931;42.260;23.116;2023-03-18T11:44:15;95707.50;;;17.35;31.38
7774;BME280;3931;42.260;23.116;2023-03-18T11:46:45;95707.53;;;17.97;31.62
7774;BME280;3931;42.260;23.116;2023-03-18T11:49:14;95708.19;;;16.98;32.09
7774;BME280;3931;42.260;23.116;2023-03-18T11:51:45;95710.47;;;15.88;33.47
7774;BME280;3931;42.260;23.116;2023-03-18T11:54:37;95716.66;;;15.92;33.58
7774;BME280;3931;42.260;23.116;2023-03-18T11:57:10;95712.88;;;16.23;32.79
7774;BME280;3931;42.260;23.116;2023-03-18T11:59:47;95720.00;;;16.42;32.83
7774;BME280;3931;42.260;23.116;2023-03-18T12:02:38;95713.97;;;16.25;33.21
7774;BME280;3931;42.260;23.116;2023-03-18T12:05:31;95716.47;;;16.23;33.79
7774;BME280;3931;42.260;23.116;2023-03-18T12:08:09;95711.38;;;16.03;33.93
7774;BME280;3931;42.260;23.116;2023-03-18T12:10:39;95717.25;;;16.24;34.41
7774;BME280;3931;42.260;23.116;2023-03-18T12:13:25;95710.22;;;17.21;32.75
7774;BME280;3931;42.260;23.116;2023-03-18T12:16:02;95711.16;;;18.27;32.00
7774;BME280;3931;42.260;23.116;2023-03-18T12:18:51;95714.56;;;17.78;32.38
7774;BME280;3931;42.260;23.116;2023-03-18T12:21:35;95713.03;;;18.59;31.65
7774;BME280;3931;42.260;23.116;2023-03-18T12:24:20;95709.81;;;17.70;32.65
7774;BME280;3931;42.260;23.116;2023-03-18T12:26:54;95727.50;;;15.99;33.63
7774;BME280;3931;42.260;23.116;2023-03-18T12:29:36;95725.34;;;16.03;33.91
7774;BME280;3931;42.260;23.116;2023-03-18T12:32:17;95721.94;;;15.99;33.89
7774;BME280;3931;42.260;23.116;2023-03-18T12:34:59;95715.38;;;16.12;33.92
7774;BME280;3931;42.260;23.116;2023-03-18T12:37:34;95724.03;;;16.32;34.08
7774;BME280;3931;42.260;23.116;2023-03-18T12:40:15;95728.41;;;15.42;35.02
7774;BME280;3931;42.260;23.116;2023-03-18T12:42:53;95730.47;;;16.74;33.93
7774;BME280;3931;42.260;23.116;2023-03-18T12:45:25;95713.84;;;16.80;33.47
7774;BME280;3931;42.260;23.116;2023-03-18T12:47:58;95724.97;;;17.78;33.12
7774;BME280;3931;42.260;23.116;2023-03-18T12:50:26;95731.50;;;17.75;33.36
7774;BME280;3931;42.260;23.116;2023-03-18T12:52:55;95737.13;;;17.51;33.93
7774;BME280;3931;42.260;23.116;2023-03-18T12:55:27;95733.34;;;16.47;35.07
7774;BME280;3931;42.260;23.116;2023-03-18T12:57:56;95731.69;;;15.77;35.63
7774;BME280;3931;42.260;23.116;2023-03-18T13:00:28;95741.56;;;16.59;35.89
7774;BME280;3931;42.260;23.116;2023-03-18T13:02:59;95741.16;;;16.85;35.36
7774;BME280;3931;42.260;23.116;2023-03-18T13:05:35;95751.53;;;16.51;35.16
7774;BME280;3931;42.260;23.116;2023-03-18T13:08:40;95733.22;;;17.25;34.77
7774;BME280;3931;42.260;23.116;2023-03-18T13:11:17;95739.28;;;16.91;35.16
7774;BME280;3931;42.260;23.116;2023-03-18T13:13:54;95738.50;;;17.23;34.17
7774;BME280;3931;42.260;23.116;2023-03-18T13:16:25;95737.59;;;17.17;34.35
7774;BME280;3931;42.260;23.116;2023-03-18T13:18:55;95735.53;;;17.50;33.73
7774;BME280;3931;42.260;23.116;2023-03-18T13:21:25;95734.28;;;17.27;34.02
7774;BME280;3931;42.260;23.116;2023-03-18T13:24:15;95742.28;;;17.11;35.12